ISD weather

Santa Bárbara Airport
Iscuandé, Nariño Department, Colombia

Public forecast

Using degrees Celsius for public forecast. Weather courtesy of forecast.io.

Closest aviation weather report (METAR) to Santa Bárbara Airport

Report is more than 6 hours old.

Closest report is Juan Casiano Airport, 9.0 nm (16.6 km) NE. Retrieved 2019/09/15 23:00 UTC (1 month ago):

SKGP 152300Z VRB02KT 6000 DZ BKN015 26/24 A2982

Closest aviation forecast (TAF) to Santa Bárbara Airport

Forecast is more than 12 hours old.

Closest forecast is Teniente Coronel Luis a Mantilla Airport, 99.6 nm (184.5 km) S. Retrieved 2018/04/06 18:33 UTC (2 years ago):

TAF SPJC 061700Z 0618/0718 25008KT CAVOK TX26/0618Z TN18/0711ZLVA0883 061730 GG KWBCYMYX 061730 SEQUYZYX SPEQ SEQU 061728 SPECI SETU 061728Z 07006KT 9999 -TSRA FEW020CB BKN023 CB OVER STN